Impacts TAF Board
For situational awareness. Not to be used for flight planning purposes.
IDs:

KBDR - Bridgeport/Sikorsky, CT, US

Issued at 1438 UTC 26 Sep 2021
Updated at 1503 UTC 26 Sep 2021
Potential Impact None Slight Moderate High
Time1452Z 26/16Z 26/17Z 26/18Z 26/19Z 26/20Z 26/21Z 26/22Z 26/23Z 27/00Z 27/01Z 27/02Z 27/03Z 27/04Z>>
Type OBS PRVL PRVL PRVL PRVL PRVL PRVL PRVL PRVL PRVL PRVL PRVL PRVL PRVL
VIS 10 >6 >6 >6 >6 >6 >6 >6 >6 >6 >6 >6 >6 >6
CIG -- -- -- -- -- -- -- -- -- -- -- -- -- --
Cover CLR FEW FEW FEW FEW FEW FEW FEW FEW FEW FEW FEW FEW FEW
FltCat VFR VFR VFR VFR VFR VFR VFR VFR VFR VFR VFR VFR VFR VFR
WX -- -- -- -- -- -- -- -- -- -- -- -- -- --
WDir 330 320 320 300 300 300 300 300 290 290 290 290 270 270
WSpd 8 11 11 16 16 16 16 16 8 8 8 8 3 3
WGst 17 18 18 24 24 24 24 24 -- -- -- -- -- --
Raw TAF
KBDR 261438Z 2615/2712 32011G18KT P6SM FEW080 FEW250
  FM261800 30016G24KT P6SM FEW060 FEW250
  FM262300 29008KT P6SM FEW100
  FM270300 27003KT P6SM FEW100


Raw METAR
KBDR 261452Z 33008G17KT 10SM CLR 21/12 A2987 RMK AO2 SLP113 T02060117 50007
KBDR 261352Z 32009G18KT 10SM BKN085 19/12 A2987 RMK AO2 SLP114 T01940117
KBDR 261252Z 33009KT 10SM CLR 18/12 A2985 RMK AO2 SLP109 T01830122

METAR Board
Radar Display
Forecast Discussion
For situational awareness. Not to be used for flight planning purposes.